Time;durP1;ratioP1;P1;durP2;ratioP2;P2;SDS_P1;SDS_P2;PMS_P1;PMS_P2;Temp;Humidity;BMP_temperature;BMP_pressure;BME280_temperature;BME280_humidity;BME280_pressure;Samples;Min_cycle;Max_cycle;Signal;HPM_P1;HPM_P2
2023/08/27 00:01:23;;;;;;;13.15;8.10;;;;;;;;;;5075300;28;20024;-75
2023/08/27 00:03:49;;;;;;;12.98;7.85;;;;;;;;;;5057515;28;20017;-74
2023/08/27 00:06:14;;;;;;;17.23;10.13;;;;;;;;;;5074605;28;20021;-74
2023/08/27 00:08:39;;;;;;;12.27;7.97;;;;;;;;;;5075171;28;20025;-74
2023/08/27 00:11:05;;;;;;;13.95;7.30;;;;;;;;;;5075160;28;20154;-73
2023/08/27 00:13:31;;;;;;;14.07;7.10;;;;;;;;;;5074970;28;20031;-72
2023/08/27 00:15:56;;;;;;;10.50;6.22;;;;;;;;;;5057045;28;20025;-72
2023/08/27 00:18:22;;;;;;;9.30;5.95;;;;;;;;;;5074618;28;20478;-72
2023/08/27 00:20:48;;;;;;;8.75;6.55;;;;;;;;;;5074875;28;20079;-72
2023/08/27 00:23:14;;;;;;;10.68;6.47;;;;;;;;;;5056747;28;20475;-72
2023/08/27 00:25:39;;;;;;;10.73;6.47;;;;;;;;;;5056919;28;20058;-72
2023/08/27 00:28:06;;;;;;;11.23;6.65;;;;;;;;;;5056545;28;20036;-72
2023/08/27 00:30:31;;;;;;;17.38;8.40;;;;;;;;;;5056801;28;20020;-72
2023/08/27 00:32:56;;;;;;;16.98;9.52;;;;;;;;;;5074822;28;20028;-72
2023/08/27 00:35:22;;;;;;;17.65;10.85;;;;;;;;;;5074552;28;20446;-72
2023/08/27 00:37:47;;;;;;;21.40;11.48;;;;;;;;;;5074087;28;20032;-72
2023/08/27 00:40:13;;;;;;;15.20;9.27;;;;;;;;;;5074754;28;20028;-72
2023/08/27 00:42:38;;;;;;;14.48;9.63;;;;;;;;;;5056598;28;20039;-72
2023/08/27 00:45:04;;;;;;;12.68;7.65;;;;;;;;;;5056531;28;20429;-72
2023/08/27 00:47:30;;;;;;;14.85;7.55;;;;;;;;;;5074565;28;20024;-72
2023/08/27 00:49:56;;;;;;;14.00;8.95;;;;;;;;;;5056185;28;20047;-73
2023/08/27 00:52:22;;;;;;;15.60;9.13;;;;;;;;;;5056531;28;20447;-72
2023/08/27 00:54:48;;;;;;;17.15;9.90;;;;;;;;;;5074179;28;20031;-72
2023/08/27 00:57:14;;;;;;;20.02;11.50;;;;;;;;;;5056106;28;20107;-72
2023/08/27 00:59:40;;;;;;;22.02;11.05;;;;;;;;;;5055446;28;20042;-72
2023/08/27 01:02:05;;;;;;;22.13;10.32;;;;;;;;;;5074143;28;20478;-72
2023/08/27 01:04:31;;;;;;;24.80;12.13;;;;;;;;;;5071605;28;20020;-73
2023/08/27 01:07:01;;;;;;;21.38;10.80;;;;;;;;;;5074000;28;20024;-72
2023/08/27 01:09:36;;;;;;;21.52;11.32;;;;;;;;;;5055642;28;20016;-73
2023/08/27 01:12:11;;;;;;;20.50;10.82;;;;;;;;;;5053592;28;20028;-72
2023/08/27 01:14:37;;;;;;;23.73;11.77;;;;;;;;;;5036128;28;20025;-72
2023/08/27 01:17:06;;;;;;;25.50;12.05;;;;;;;;;;5036029;28;20025;-72
2023/08/27 01:19:31;;;;;;;21.65;11.30;;;;;;;;;;5035395;28;20479;-72
2023/08/27 01:21:56;;;;;;;24.30;12.18;;;;;;;;;;5072289;28;20035;-73
2023/08/27 01:24:22;;;;;;;21.85;12.48;;;;;;;;;;5039510;28;20024;-73
2023/08/27 01:26:51;;;;;;;27.40;13.82;;;;;;;;;;5073412;28;20036;-73
2023/08/27 01:29:16;;;;;;;28.00;15.15;;;;;;;;;;5055368;28;20363;-73
2023/08/27 01:31:48;;;;;;;28.57;14.43;;;;;;;;;;5055498;28;20024;-73
2023/08/27 01:34:14;;;;;;;26.40;13.98;;;;;;;;;;5055778;28;20074;-72
2023/08/27 01:36:40;;;;;;;28.55;14.35;;;;;;;;;;5055358;28;20034;-73
2023/08/27 01:39:06;;;;;;;27.58;13.07;;;;;;;;;;5055465;28;20029;-73
2023/08/27 01:41:31;;;;;;;25.88;13.00;;;;;;;;;;5055254;28;20024;-73
2023/08/27 01:43:56;;;;;;;31.25;14.75;;;;;;;;;;5055051;28;20032;-73
2023/08/27 01:46:21;;;;;;;28.25;14.07;;;;;;;;;;5055355;28;20025;-73
2023/08/27 01:48:47;;;;;;;27.23;14.23;;;;;;;;;;5072831;28;20035;-73
2023/08/27 01:51:12;;;;;;;22.73;11.82;;;;;;;;;;5072965;28;20013;-73
2023/08/27 01:53:37;;;;;;;19.27;11.38;;;;;;;;;;5073292;28;20430;-73
2023/08/27 01:56:05;;;;;;;22.90;11.73;;;;;;;;;;5055180;28;20127;-73
2023/08/27 01:58:30;;;;;;;26.20;13.00;;;;;;;;;;5054789;28;20029;-73
2023/08/27 02:00:55;;;;;;;28.25;13.80;;;;;;;;;;5055307;28;20048;-73
2023/08/27 02:03:21;;;;;;;27.00;13.65;;;;;;;;;;5054614;28;20020;-73
2023/08/27 02:05:49;;;;;;;25.50;13.35;;;;;;;;;;5072698;28;20107;-73
2023/08/27 02:08:14;;;;;;;29.52;14.45;;;;;;;;;;5073065;28;20563;-73
2023/08/27 02:10:39;;;;;;;26.70;13.38;;;;;;;;;;5072843;28;20024;-72
2023/08/27 02:13:04;;;;;;;33.47;14.52;;;;;;;;;;5054860;28;20024;-73
2023/08/27 02:15:30;;;;;;;31.60;14.50;;;;;;;;;;5038138;28;20479;-72
2023/08/27 02:17:55;;;;;;;33.25;15.63;;;;;;;;;;5054297;28;20099;-73
2023/08/27 02:20:21;;;;;;;29.73;14.65;;;;;;;;;;5050788;28;20033;-73
2023/08/27 02:22:46;;;;;;;29.83;14.00;;;;;;;;;;5034885;28;20056;-72
2023/08/27 02:25:12;;;;;;;23.35;12.25;;;;;;;;;;5041182;28;20082;-73
2023/08/27 02:27:37;;;;;;;28.65;14.55;;;;;;;;;;5034524;28;20534;-73
2023/08/27 02:30:03;;;;;;;30.40;16.05;;;;;;;;;;5034973;28;20364;-73
2023/08/27 02:32:28;;;;;;;31.88;14.40;;;;;;;;;;5053193;28;20028;-73
2023/08/27 02:34:54;;;;;;;34.00;15.52;;;;;;;;;;5052317;28;20471;-72
2023/08/27 02:37:19;;;;;;;32.15;16.17;;;;;;;;;;5054718;28;20033;-73
2023/08/27 02:39:45;;;;;;;29.10;14.35;;;;;;;;;;5034475;28;20029;-73
2023/08/27 02:42:10;;;;;;;27.17;15.63;;;;;;;;;;5025259;28;20401;-73
2023/08/27 02:44:35;;;;;;;28.33;14.50;;;;;;;;;;5018349;28;20024;-72
2023/08/27 02:47:00;;;;;;;27.75;13.98;;;;;;;;;;5052459;28;20080;-73
2023/08/27 02:49:26;;;;;;;25.98;13.70;;;;;;;;;;5054627;28;20032;-73
2023/08/27 02:51:51;;;;;;;31.02;15.18;;;;;;;;;;5067081;28;20112;-73
2023/08/27 02:54:17;;;;;;;28.48;13.77;;;;;;;;;;5055743;28;20025;-73
2023/08/27 02:56:42;;;;;;;25.05;12.43;;;;;;;;;;5054506;28;20074;-73
2023/08/27 02:59:08;;;;;;;20.17;10.15;;;;;;;;;;5072285;28;20035;-72
2023/08/27 03:01:33;;;;;;;28.58;13.55;;;;;;;;;;5072488;28;20052;-72
2023/08/27 03:03:58;;;;;;;21.38;10.88;;;;;;;;;;5072273;28;20425;-73
2023/08/27 03:06:23;;;;;;;19.67;10.32;;;;;;;;;;5054741;28;20470;-73
2023/08/27 03:08:49;;;;;;;18.23;9.35;;;;;;;;;;5072716;28;20024;-72
2023/08/27 03:11:14;;;;;;;16.23;9.52;;;;;;;;;;5072628;28;20453;-72
2023/08/27 03:13:39;;;;;;;14.43;8.35;;;;;;;;;;5072006;28;20029;-73
2023/08/27 03:16:05;;;;;;;16.83;8.93;;;;;;;;;;5072920;28;20069;-72
2023/08/27 03:18:30;;;;;;;17.88;8.07;;;;;;;;;;5037871;28;20016;-72
2023/08/27 03:20:55;;;;;;;13.80;7.43;;;;;;;;;;5054434;28;20029;-72
2023/08/27 03:23:21;;;;;;;13.40;7.22;;;;;;;;;;5054753;28;20017;-72
2023/08/27 03:25:49;;;;;;;12.50;6.75;;;;;;;;;;5071955;28;20496;-73
2023/08/27 03:28:14;;;;;;;14.23;7.43;;;;;;;;;;5074857;28;20085;-72
2023/08/27 03:30:42;;;;;;;13.40;7.10;;;;;;;;;;5058132;28;20052;-72
2023/08/27 03:33:07;;;;;;;19.63;11.23;;;;;;;;;;5058385;28;20432;-72
2023/08/27 03:35:32;;;;;;;15.15;8.43;;;;;;;;;;5057456;28;20111;-73
2023/08/27 03:37:57;;;;;;;21.60;10.52;;;;;;;;;;5041171;28;20162;-73
2023/08/27 03:40:23;;;;;;;17.90;8.82;;;;;;;;;;5075888;28;20032;-72
2023/08/27 03:42:48;;;;;;;19.70;10.85;;;;;;;;;;5075897;28;20063;-72
2023/08/27 03:45:13;;;;;;;21.52;10.75;;;;;;;;;;5075265;28;20030;-73
2023/08/27 03:47:39;;;;;;;23.35;11.82;;;;;;;;;;5075899;28;20069;-72
2023/08/27 03:50:05;;;;;;;23.63;12.13;;;;;;;;;;5075902;28;20493;-72
2023/08/27 03:52:30;;;;;;;32.40;14.27;;;;;;;;;;5057536;28;20028;-72
2023/08/27 03:54:55;;;;;;;37.50;16.40;;;;;;;;;;5040872;28;20029;-73
2023/08/27 03:57:21;;;;;;;32.58;15.02;;;;;;;;;;5057492;28;20660;-72
2023/08/27 03:59:46;;;;;;;30.75;16.48;;;;;;;;;;5057486;28;20028;-72
2023/08/27 04:02:12;;;;;;;34.65;14.10;;;;;;;;;;5057657;28;20027;-72
2023/08/27 04:04:37;;;;;;;28.92;12.43;;;;;;;;;;5075288;28;20036;-72
2023/08/27 04:07:02;;;;;;;23.08;11.20;;;;;;;;;;5057411;28;20102;-72
2023/08/27 04:09:28;;;;;;;19.77;11.18;;;;;;;;;;5074678;28;20031;-73
2023/08/27 04:11:53;;;;;;;19.45;11.43;;;;;;;;;;5075136;28;20029;-72
2023/08/27 04:14:18;;;;;;;30.00;15.38;;;;;;;;;;5057267;28;20024;-72
2023/08/27 04:16:44;;;;;;;22.13;12.10;;;;;;;;;;5075338;28;20561;-72
2023/08/27 04:19:09;;;;;;;34.80;14.07;;;;;;;;;;5056169;28;20020;-72
2023/08/27 04:21:34;;;;;;;35.33;16.17;;;;;;;;;;5074700;28;20051;-72
2023/08/27 04:24:02;;;;;;;33.35;17.40;;;;;;;;;;5056975;28;20116;-72
2023/08/27 04:26:27;;;;;;;29.45;14.30;;;;;;;;;;5056972;28;20035;-72
2023/08/27 04:28:54;;;;;;;28.52;15.18;;;;;;;;;;5074435;28;20029;-72
2023/08/27 04:31:20;;;;;;;22.45;12.18;;;;;;;;;;5073872;28;20031;-73
2023/08/27 04:33:45;;;;;;;32.17;16.05;;;;;;;;;;5056512;28;20112;-72
2023/08/27 04:36:11;;;;;;;25.85;13.68;;;;;;;;;;5056410;28;20036;-72
2023/08/27 04:38:36;;;;;;;27.83;13.60;;;;;;;;;;5056378;28;20028;-72
2023/08/27 04:41:01;;;;;;;25.90;13.25;;;;;;;;;;5056316;28;20025;-72
2023/08/27 04:43:26;;;;;;;38.58;16.70;;;;;;;;;;5056206;28;20054;-72
2023/08/27 04:45:53;;;;;;;37.60;16.88;;;;;;;;;;5055770;28;20024;-72
2023/08/27 04:48:18;;;;;;;33.65;15.68;;;;;;;;;;5074120;28;20031;-72
2023/08/27 04:50:47;;;;;;;33.35;16.05;;;;;;;;;;5056195;28;20103;-72
2023/08/27 04:53:15;;;;;;;31.90;15.90;;;;;;;;;;5039391;28;20020;-72
2023/08/27 04:55:42;;;;;;;37.88;16.70;;;;;;;;;;5055951;28;20046;-73
2023/08/27 04:58:08;;;;;;;33.85;17.13;;;;;;;;;;5055944;28;20024;-72
2023/08/27 05:00:34;;;;;;;35.60;16.67;;;;;;;;;;5055302;28;20033;-73
2023/08/27 05:02:59;;;;;;;35.90;17.13;;;;;;;;;;5055869;28;20531;-72
2023/08/27 05:05:24;;;;;;;32.42;15.48;;;;;;;;;;5073828;28;20086;-72
2023/08/27 05:07:50;;;;;;;38.65;17.15;;;;;;;;;;5055776;28;20034;-72
2023/08/27 05:10:15;;;;;;;29.75;14.98;;;;;;;;;;5073835;28;20013;-72
2023/08/27 05:12:40;;;;;;;34.47;15.98;;;;;;;;;;5055506;28;20072;-73
2023/08/27 05:15:06;;;;;;;34.55;16.80;;;;;;;;;;5073738;28;20136;-72
2023/08/27 05:17:31;;;;;;;40.13;16.48;;;;;;;;;;5055778;28;20115;-72
2023/08/27 05:19:57;;;;;;;33.45;14.75;;;;;;;;;;5073901;28;20025;-72
2023/08/27 05:22:22;;;;;;;32.75;14.55;;;;;;;;;;5073415;28;20020;-72
2023/08/27 05:24:47;;;;;;;28.80;14.85;;;;;;;;;;5038339;28;20017;-72
2023/08/27 05:27:13;;;;;;;31.48;16.77;;;;;;;;;;5055333;28;20029;-72
2023/08/27 05:29:38;;;;;;;32.67;16.10;;;;;;;;;;5102805;23;20139;-77
2023/08/27 05:32:05;;;;;;;33.08;15.50;;;;;;;;;;5074833;28;20420;-77
2023/08/27 05:34:30;;;;;;;30.23;14.82;;;;;;;;;;5074484;28;20029;-77
2023/08/27 05:36:55;;;;;;;28.35;17.30;;;;;;;;;;5072781;28;20363;-77
2023/08/27 05:39:21;;;;;;;35.70;17.02;;;;;;;;;;5074219;28;20367;-77
2023/08/27 05:41:46;;;;;;;36.20;16.63;;;;;;;;;;5074371;28;20024;-77
2023/08/27 05:44:12;;;;;;;28.98;14.25;;;;;;;;;;5074628;28;20033;-77
2023/08/27 05:46:37;;;;;;;28.65;13.70;;;;;;;;;;5072569;28;20028;-77
2023/08/27 05:49:02;;;;;;;30.25;13.85;;;;;;;;;;5074481;28;20021;-77
2023/08/27 05:51:28;;;;;;;30.73;14.77;;;;;;;;;;5073973;28;20021;-76
2023/08/27 05:53:53;;;;;;;30.10;14.02;;;;;;;;;;5074275;28;20051;-76
2023/08/27 05:56:18;;;;;;;33.03;16.00;;;;;;;;;;5051459;28;20091;-76
2023/08/27 05:58:44;;;;;;;33.03;16.23;;;;;;;;;;5053130;28;20104;-76
2023/08/27 06:01:09;;;;;;;33.72;15.05;;;;;;;;;;5064557;28;20027;-76
2023/08/27 06:03:34;;;;;;;32.75;16.85;;;;;;;;;;5073166;28;20493;-76
2023/08/27 06:06:00;;;;;;;28.63;14.60;;;;;;;;;;5072696;28;20055;-76
2023/08/27 06:08:26;;;;;;;26.10;13.40;;;;;;;;;;5055790;28;20097;-76
2023/08/27 06:10:51;;;;;;;25.35;13.45;;;;;;;;;;5073972;28;20021;-76
2023/08/27 06:13:18;;;;;;;30.20;15.52;;;;;;;;;;5055446;28;20036;-76
2023/08/27 06:15:43;;;;;;;27.25;14.07;;;;;;;;;;5072688;28;20036;-76
2023/08/27 06:18:09;;;;;;;31.20;15.80;;;;;;;;;;5073816;28;20017;-76
2023/08/27 06:20:34;;;;;;;31.77;14.48;;;;;;;;;;5055937;28;20404;-77
2023/08/27 06:23:00;;;;;;;26.42;15.50;;;;;;;;;;5065123;28;20472;-76
2023/08/27 06:25:26;;;;;;;31.48;15.30;;;;;;;;;;5052843;28;20025;-76
2023/08/27 06:27:54;;;;;;;32.75;15.70;;;;;;;;;;5053671;28;20031;-76
2023/08/27 06:30:20;;;;;;;28.45;14.27;;;;;;;;;;5052511;28;20546;-77
2023/08/27 06:32:45;;;;;;;28.45;15.07;;;;;;;;;;5053207;28;20113;-74
2023/08/27 06:35:10;;;;;;;30.55;14.77;;;;;;;;;;5054296;28;20024;-75
2023/08/27 06:37:37;;;;;;;25.15;13.88;;;;;;;;;;5053775;28;20533;-74
2023/08/27 06:40:02;;;;;;;28.23;14.55;;;;;;;;;;5053530;28;20061;-76
2023/08/27 06:42:28;;;;;;;25.65;13.43;;;;;;;;;;5052422;28;20040;-74
2023/08/27 06:44:53;;;;;;;26.48;13.93;;;;;;;;;;5053164;28;20021;-74
2023/08/27 06:47:18;;;;;;;25.95;11.43;;;;;;;;;;5052859;28;20059;-72
2023/08/27 06:49:44;;;;;;;19.95;13.05;;;;;;;;;;5035887;28;20120;-72
2023/08/27 06:52:09;;;;;;;19.67;11.32;;;;;;;;;;5052714;28;20464;-72
2023/08/27 06:54:35;;;;;;;21.55;10.77;;;;;;;;;;5051994;28;20061;-72
2023/08/27 06:57:00;;;;;;;19.98;11.82;;;;;;;;;;5051882;28;20025;-72
2023/08/27 06:59:25;;;;;;;22.00;12.00;;;;;;;;;;5053155;28;20025;-72
2023/08/27 07:01:50;;;;;;;21.10;12.15;;;;;;;;;;5051970;28;20032;-72
2023/08/27 07:04:16;;;;;;;19.00;11.02;;;;;;;;;;5064852;28;20431;-72
2023/08/27 07:06:41;;;;;;;23.25;13.35;;;;;;;;;;5077205;28;20024;-72
2023/08/27 07:09:06;;;;;;;19.92;10.52;;;;;;;;;;5075679;28;20021;-72
2023/08/27 07:11:33;;;;;;;22.58;10.18;;;;;;;;;;5059179;28;20020;-72
2023/08/27 07:13:59;;;;;;;18.50;10.80;;;;;;;;;;5075075;28;20067;-72
2023/08/27 07:16:24;;;;;;;19.48;10.70;;;;;;;;;;5075578;28;20482;-72
2023/08/27 07:18:50;;;;;;;18.33;10.50;;;;;;;;;;5075254;28;20425;-74
2023/08/27 07:21:15;;;;;;;20.55;10.65;;;;;;;;;;5075555;28;20028;-73
2023/08/27 07:23:40;;;;;;;19.38;10.13;;;;;;;;;;5076505;28;20032;-73
2023/08/27 07:26:05;;;;;;;15.65;9.65;;;;;;;;;;5076805;28;20056;-73
2023/08/27 07:28:31;;;;;;;18.13;9.68;;;;;;;;;;5076671;28;20024;-73
2023/08/27 07:30:57;;;;;;;12.43;7.55;;;;;;;;;;5075118;28;20024;-73
2023/08/27 07:33:22;;;;;;;16.83;10.57;;;;;;;;;;5092011;28;20394;-73
2023/08/27 07:35:48;;;;;;;17.20;9.07;;;;;;;;;;5075697;28;20036;-73
2023/08/27 07:38:14;;;;;;;18.83;9.57;;;;;;;;;;5076138;28;20024;-72
2023/08/27 07:40:42;;;;;;;15.95;8.82;;;;;;;;;;5075114;28;20029;-73
2023/08/27 07:43:08;;;;;;;14.05;7.70;;;;;;;;;;5076275;28;20036;-73
2023/08/27 07:45:33;;;;;;;12.38;7.57;;;;;;;;;;5091814;28;20027;-73
2023/08/27 07:47:59;;;;;;;11.27;6.82;;;;;;;;;;5091268;28;20084;-73
2023/08/27 07:50:25;;;;;;;12.18;7.18;;;;;;;;;;5091798;28;20470;-72
2023/08/27 07:52:50;;;;;;;12.52;7.32;;;;;;;;;;5076265;28;20033;-73
2023/08/27 07:55:16;;;;;;;10.45;6.75;;;;;;;;;;5076127;28;20028;-74
2023/08/27 07:57:41;;;;;;;13.43;6.70;;;;;;;;;;5074582;28;20021;-74
2023/08/27 08:00:07;;;;;;;8.75;5.68;;;;;;;;;;5076105;28;20036;-74
2023/08/27 08:02:33;;;;;;;11.13;5.15;;;;;;;;;;5074896;28;20485;-74
2023/08/27 08:04:58;;;;;;;6.65;4.53;;;;;;;;;;5075231;28;20036;-72
2023/08/27 08:07:24;;;;;;;7.47;4.80;;;;;;;;;;5075967;28;20536;-73
2023/08/27 08:09:49;;;;;;;9.45;5.03;;;;;;;;;;5074679;28;20020;-72
2023/08/27 08:12:14;;;;;;;6.30;4.22;;;;;;;;;;5076131;28;20058;-74
2023/08/27 08:14:40;;;;;;;6.18;4.57;;;;;;;;;;5074488;28;20026;-74
2023/08/27 08:17:05;;;;;;;6.35;4.63;;;;;;;;;;5076011;28;20020;-74
2023/08/27 08:19:30;;;;;;;7.53;4.43;;;;;;;;;;5073938;28;20123;-77
2023/08/27 08:21:56;;;;;;;7.10;4.95;;;;;;;;;;5074753;28;20021;-77
2023/08/27 08:24:21;;;;;;;8.07;5.00;;;;;;;;;;5076125;28;20378;-77
2023/08/27 08:26:49;;;;;;;5.97;4.55;;;;;;;;;;5075311;28;20398;-75
2023/08/27 08:29:14;;;;;;;6.43;3.90;;;;;;;;;;5074147;28;20060;-77
2023/08/27 08:31:40;;;;;;;5.15;3.63;;;;;;;;;;5091448;28;20497;-75
2023/08/27 08:34:05;;;;;;;7.53;4.07;;;;;;;;;;5075672;28;20021;-75
2023/08/27 08:36:30;;;;;;;6.57;3.63;;;;;;;;;;5075537;28;20020;-77
2023/08/27 08:38:55;;;;;;;5.55;3.30;;;;;;;;;;5075012;28;20035;-75
2023/08/27 08:41:25;;;;;;;5.95;3.80;;;;;;;;;;5075320;28;20105;-77
2023/08/27 08:44:34;;;;;;;5.03;3.50;;;;;;;;;;5091114;28;20020;-77
2023/08/27 08:46:59;;;;;;;8.90;3.05;;;;;;;;;;5000065;28;20026;-77
2023/08/27 08:49:26;;;;;;;8.70;3.97;;;;;;;;;;5033043;28;20136;-77
2023/08/27 08:51:57;;;;;;;3.80;3.00;;;;;;;;;;5044097;28;20123;-77
2023/08/27 08:54:28;;;;;;;5.40;3.53;;;;;;;;;;5074145;28;20029;-77
2023/08/27 08:56:55;;;;;;;6.15;4.57;;;;;;;;;;5075023;28;20052;-77
2023/08/27 08:59:22;;;;;;;6.63;3.90;;;;;;;;;;5090117;28;20028;-77
2023/08/27 09:01:48;;;;;;;5.93;3.35;;;;;;;;;;5075035;28;20017;-77
2023/08/27 09:04:13;;;;;;;5.07;3.40;;;;;;;;;;5090967;28;20029;-77
2023/08/27 09:06:41;;;;;;;5.55;3.10;;;;;;;;;;5090761;28;20470;-77
2023/08/27 09:09:07;;;;;;;6.80;3.13;;;;;;;;;;5057778;28;20024;-77
2023/08/27 09:11:35;;;;;;;7.10;3.17;;;;;;;;;;5074661;28;20026;-77
2023/08/27 09:14:03;;;;;;;5.65;2.85;;;;;;;;;;5073583;28;20020;-77
2023/08/27 09:16:29;;;;;;;4.45;3.22;;;;;;;;;;5073658;28;20031;-76
2023/08/27 09:18:55;;;;;;;5.10;3.75;;;;;;;;;;5090276;28;20032;-77
2023/08/27 09:21:20;;;;;;;5.57;2.90;;;;;;;;;;5090645;28;20024;-77
2023/08/27 09:23:45;;;;;;;4.97;2.88;;;;;;;;;;5073235;28;20042;-77
2023/08/27 09:26:13;;;;;;;3.70;2.70;;;;;;;;;;5073889;28;20050;-77
2023/08/27 09:28:38;;;;;;;7.75;3.13;;;;;;;;;;5073253;28;20132;-77
2023/08/27 09:31:04;;;;;;;6.38;3.50;;;;;;;;;;5090610;28;20021;-77
2023/08/27 09:33:40;;;;;;;7.07;3.10;;;;;;;;;;5073133;28;20024;-76
2023/08/27 09:36:09;;;;;;;5.35;3.53;;;;;;;;;;5072905;28;20029;-77
2023/08/27 09:38:35;;;;;;;5.88;3.38;;;;;;;;;;5089601;28;20025;-77
2023/08/27 09:41:18;;;;;;;4.88;4.18;;;;;;;;;;5073443;28;20378;-77
2023/08/27 09:43:52;;;;;;;5.03;3.08;;;;;;;;;;5073017;28;20029;-76
2023/08/27 09:46:17;;;;;;;4.28;2.80;;;;;;;;;;5073119;28;20136;-76
2023/08/27 09:48:43;;;;;;;5.63;3.33;;;;;;;;;;5073042;28;20039;-77
2023/08/27 09:51:09;;;;;;;8.52;3.53;;;;;;;;;;5072629;28;20553;-77
2023/08/27 09:53:35;;;;;;;7.75;2.95;;;;;;;;;;5074461;28;20031;-76
2023/08/27 09:56:02;;;;;;;7.40;3.90;;;;;;;;;;5090007;28;20020;-76
2023/08/27 09:58:27;;;;;;;5.00;3.53;;;;;;;;;;5089438;28;20146;-77
2023/08/27 10:00:59;;;;;;;7.35;3.53;;;;;;;;;;5073110;28;20503;-76
2023/08/27 10:03:26;;;;;;;5.22;3.22;;;;;;;;;;5089589;28;20029;-76
2023/08/27 10:05:55;;;;;;;5.78;3.80;;;;;;;;;;5072497;28;20551;-77
2023/08/27 10:08:21;;;;;;;4.38;3.08;;;;;;;;;;5089909;28;20601;-77
2023/08/27 10:10:46;;;;;;;6.90;4.00;;;;;;;;;;5089879;28;20091;-77
2023/08/27 10:13:14;;;;;;;5.72;3.95;;;;;;;;;;5072909;28;20114;-77
2023/08/27 10:15:39;;;;;;;5.75;2.90;;;;;;;;;;5072785;28;20488;-77
2023/08/27 10:18:05;;;;;;;6.65;2.88;;;;;;;;;;5072148;28;20111;-77
2023/08/27 10:20:31;;;;;;;6.45;2.85;;;;;;;;;;5056026;28;20095;-76
2023/08/27 10:22:57;;;;;;;5.80;2.60;;;;;;;;;;5072693;28;20020;-77
2023/08/27 10:25:23;;;;;;;4.63;2.88;;;;;;;;;;5089489;28;20516;-77
2023/08/27 10:27:49;;;;;;;5.43;3.47;;;;;;;;;;5089459;28;20024;-77
2023/08/27 10:30:16;;;;;;;4.65;2.38;;;;;;;;;;5072523;28;20025;-77
2023/08/27 10:32:41;;;;;;;5.72;3.00;;;;;;;;;;5072135;28;20032;-75
2023/08/27 10:35:10;;;;;;;3.42;2.25;;;;;;;;;;5072496;28;20029;-75
2023/08/27 10:37:43;;;;;;;4.95;3.28;;;;;;;;;;5059520;28;20398;-75
2023/08/27 10:40:10;;;;;;;4.78;2.47;;;;;;;;;;5093264;28;20492;-75
2023/08/27 10:42:39;;;;;;;3.75;1.83;;;;;;;;;;5076153;28;20088;-75
2023/08/27 10:45:20;;;;;;;3.13;2.28;;;;;;;;;;5077826;28;20077;-75
2023/08/27 10:48:19;;;;;;;6.05;2.60;;;;;;;;;;5077844;28;20099;-75
2023/08/27 10:50:49;;;;;;;4.55;2.45;;;;;;;;;;5077507;28;20046;-77
2023/08/27 10:53:15;;;;;;;4.85;2.45;;;;;;;;;;5076094;28;20024;-77
2023/08/27 10:55:45;;;;;;;3.15;1.88;;;;;;;;;;5059732;28;20032;-75
2023/08/27 10:58:19;;;;;;;4.68;1.95;;;;;;;;;;5076380;28;20077;-75
2023/08/27 11:01:06;;;;;;;2.92;2.08;;;;;;;;;;5058988;28;20070;-75
2023/08/27 11:03:57;;;;;;;2.35;1.50;;;;;;;;;;5093395;28;20035;-76
2023/08/27 11:07:14;;;;;;;3.40;2.15;;;;;;;;;;5077368;28;20017;-76
2023/08/27 11:09:36;;;;;;;6.70;2.42;;;;;;;;;;5075030;28;20086;-76
2023/08/27 11:12:03;;;;;;;3.22;1.70;;;;;;;;;;5092584;28;20031;-75
2023/08/27 11:14:29;;;;;;;7.25;2.00;;;;;;;;;;5092992;28;20028;-75
2023/08/27 11:17:03;;;;;;;3.30;1.60;;;;;;;;;;5075973;28;20093;-76
2023/08/27 11:19:32;;;;;;;3.33;2.20;;;;;;;;;;5075711;28;20501;-75
2023/08/27 11:22:12;;;;;;;3.13;1.70;;;;;;;;;;5093127;28;20040;-75
2023/08/27 11:24:43;;;;;;;3.33;1.83;;;;;;;;;;5076330;28;20104;-75
2023/08/27 11:27:08;;;;;;;2.55;1.70;;;;;;;;;;5092938;28;20114;-75
2023/08/27 11:29:38;;;;;;;2.97;2.00;;;;;;;;;;5106399;22;20044;-73
2023/08/27 11:32:04;;;;;;;2.53;2.03;;;;;;;;;;5074377;28;20402;-73
2023/08/27 11:34:38;;;;;;;3.33;1.75;;;;;;;;;;5075215;28;20063;-73
2023/08/27 11:37:06;;;;;;;3.08;1.73;;;;;;;;;;5075695;28;20024;-72
2023/08/27 11:39:33;;;;;;;3.88;1.88;;;;;;;;;;5074219;28;20021;-72
2023/08/27 11:41:59;;;;;;;3.22;2.63;;;;;;;;;;5074194;28;20389;-72
2023/08/27 11:44:24;;;;;;;2.95;1.67;;;;;;;;;;5057766;28;20020;-72
2023/08/27 11:46:51;;;;;;;4.50;2.20;;;;;;;;;;5073521;28;20024;-73
2023/08/27 11:49:29;;;;;;;4.25;1.85;;;;;;;;;;5073696;28;20023;-72
2023/08/27 11:51:56;;;;;;;3.42;1.92;;;;;;;;;;5074309;28;20458;-72
2023/08/27 11:54:24;;;;;;;4.72;1.90;;;;;;;;;;5074172;28;20037;-72
2023/08/27 11:56:49;;;;;;;3.33;2.00;;;;;;;;;;5068751;28;20043;-73
2023/08/27 11:59:15;;;;;;;2.35;1.60;;;;;;;;;;5060733;28;20482;-73
2023/08/27 12:01:40;;;;;;;2.90;2.60;;;;;;;;;;5073092;28;20021;-72
2023/08/27 12:04:10;;;;;;;2.60;1.90;;;;;;;;;;5073569;28;20450;-73
2023/08/27 12:06:36;;;;;;;3.60;1.92;;;;;;;;;;5073712;28;20394;-73
2023/08/27 12:09:01;;;;;;;5.40;3.20;;;;;;;;;;5074759;28;20062;-72
2023/08/27 12:11:27;;;;;;;3.95;2.47;;;;;;;;;;5073272;28;20024;-73
2023/08/27 12:14:00;;;;;;;3.40;2.30;;;;;;;;;;5073572;28;20043;-72
2023/08/27 12:16:33;;;;;;;2.65;1.80;;;;;;;;;;5075054;28;20096;-72
2023/08/27 12:19:02;;;;;;;3.97;2.17;;;;;;;;;;5073565;28;20055;-72
2023/08/27 12:21:28;;;;;;;4.45;2.58;;;;;;;;;;5073751;28;20075;-73
2023/08/27 12:23:53;;;;;;;3.58;2.13;;;;;;;;;;5074113;28;20028;-72
2023/08/27 12:26:19;;;;;;;3.78;2.17;;;;;;;;;;5074878;28;20539;-73
2023/08/27 12:28:53;;;;;;;3.55;2.30;;;;;;;;;;5074502;28;20107;-73
2023/08/27 12:31:24;;;;;;;4.88;3.38;;;;;;;;;;5074421;28;20024;-73
2023/08/27 12:33:49;;;;;;;3.95;2.20;;;;;;;;;;5073304;28;20051;-72
2023/08/27 12:36:15;;;;;;;3.55;1.88;;;;;;;;;;5074473;28;20059;-72
2023/08/27 12:38:40;;;;;;;3.60;2.33;;;;;;;;;;5072591;28;20528;-73
2023/08/27 12:41:06;;;;;;;5.38;2.47;;;;;;;;;;5073328;28;20111;-73
2023/08/27 12:43:31;;;;;;;4.47;2.65;;;;;;;;;;5072932;28;20027;-72
2023/08/27 12:45:56;;;;;;;4.78;2.88;;;;;;;;;;5074522;28;20024;-73
2023/08/27 12:48:22;;;;;;;3.92;2.00;;;;;;;;;;5073555;28;20017;-73
2023/08/27 12:50:47;;;;;;;4.05;2.33;;;;;;;;;;5074125;28;20027;-73
2023/08/27 12:53:12;;;;;;;4.63;2.83;;;;;;;;;;5074248;28;20453;-72
2023/08/27 12:55:40;;;;;;;3.25;2.25;;;;;;;;;;5073988;28;20024;-72
2023/08/27 12:58:05;;;;;;;5.75;2.35;;;;;;;;;;5074056;28;20565;-72
2023/08/27 13:00:30;;;;;;;3.97;1.92;;;;;;;;;;5071215;28;20032;-73
2023/08/27 13:02:55;;;;;;;4.72;2.58;;;;;;;;;;5073847;28;20025;-73
2023/08/27 13:05:21;;;;;;;5.32;2.42;;;;;;;;;;5074085;28;20470;-73
2023/08/27 13:07:46;;;;;;;4.38;2.25;;;;;;;;;;5073809;28;20073;-73
2023/08/27 13:10:11;;;;;;;4.65;2.58;;;;;;;;;;5055809;28;20466;-73
2023/08/27 13:12:37;;;;;;;7.72;3.15;;;;;;;;;;5072071;28;20028;-73
2023/08/27 13:15:03;;;;;;;3.50;2.38;;;;;;;;;;5073612;28;20099;-73
2023/08/27 13:17:30;;;;;;;6.78;2.42;;;;;;;;;;5073607;28;20028;-73
2023/08/27 13:19:56;;;;;;;2.60;2.08;;;;;;;;;;5072268;28;20020;-73
2023/08/27 13:22:21;;;;;;;3.00;2.55;;;;;;;;;;5072313;28;20024;-73
2023/08/27 13:24:46;;;;;;;5.75;2.58;;;;;;;;;;5072914;28;20467;-73
2023/08/27 13:27:12;;;;;;;5.82;3.05;;;;;;;;;;5072292;28;20032;-73
2023/08/27 13:29:37;;;;;;;11.13;4.05;;;;;;;;;;5073154;28;20093;-74
2023/08/27 13:32:03;;;;;;;9.95;3.47;;;;;;;;;;5073584;28;20494;-74
2023/08/27 13:34:28;;;;;;;5.10;2.33;;;;;;;;;;5073309;28;20095;-74
2023/08/27 13:36:55;;;;;;;4.32;2.35;;;;;;;;;;5073750;28;20493;-74
2023/08/27 13:39:20;;;;;;;3.65;2.72;;;;;;;;;;5072286;28;20030;-75
2023/08/27 13:41:46;;;;;;;3.85;2.83;;;;;;;;;;5071904;28;20021;-76
2023/08/27 13:44:11;;;;;;;3.35;2.45;;;;;;;;;;5073687;28;20029;-76
2023/08/27 13:46:36;;;;;;;5.40;2.22;;;;;;;;;;5073602;28;20028;-76
2023/08/27 13:49:01;;;;;;;3.85;2.67;;;;;;;;;;5073900;28;20099;-76
2023/08/27 13:51:28;;;;;;;3.47;1.70;;;;;;;;;;5071761;28;20123;-76
2023/08/27 13:53:53;;;;;;;3.22;2.00;;;;;;;;;;5072587;28;20466;-76
2023/08/27 13:56:19;;;;;;;4.10;2.00;;;;;;;;;;5055523;28;20032;-76
2023/08/27 13:58:45;;;;;;;2.40;1.83;;;;;;;;;;5072223;28;20513;-76
2023/08/27 14:01:10;;;;;;;2.45;1.85;;;;;;;;;;5073194;28;20071;-76
2023/08/27 14:03:35;;;;;;;3.78;1.65;;;;;;;;;;5071527;28;20021;-76
2023/08/27 14:06:01;;;;;;;4.57;2.20;;;;;;;;;;5073464;28;20444;-76
2023/08/27 14:08:27;;;;;;;5.18;1.90;;;;;;;;;;5072258;28;20024;-76
2023/08/27 14:10:53;;;;;;;2.45;1.80;;;;;;;;;;5054806;28;20025;-76
2023/08/27 14:13:18;;;;;;;2.47;2.00;;;;;;;;;;5071980;28;20062;-76
2023/08/27 14:15:43;;;;;;;3.35;2.53;;;;;;;;;;5072549;28;20475;-76
2023/08/27 14:18:09;;;;;;;5.43;2.35;;;;;;;;;;5071963;28;20028;-75
2023/08/27 14:20:34;;;;;;;3.72;2.15;;;;;;;;;;5071888;28;20024;-75
2023/08/27 14:23:01;;;;;;;3.53;1.88;;;;;;;;;;5073213;28;20054;-75
2023/08/27 14:25:26;;;;;;;4.72;2.65;;;;;;;;;;5071173;28;20111;-75
2023/08/27 14:27:51;;;;;;;8.30;3.17;;;;;;;;;;5071706;28;20047;-75